Aeroporto :







RITROVATECI SU...

 
LOGIN :

Iscrizione | Disclaimer

   EN    FR    IT 

 









Sommario :    VFR   VFR Marginale   IFR   IFR Intensivo   IFR Molto Intensivo
Visibilità : 
Base nubi : 
>= 8 km
>= 3000ft
5 / 8 km
1000 / 3000 ft
1500m / 5 km
500 / 1000 ft
800 / 1500m
200 / 500 ft
< 800m
< 200 ft
Simboli :   Temporali  Nebbia  Neve Forte  Precipitazioni Forti  Vento > 20 kt






- Altitudine del aeroporto : 160 ft
- Codice IATA : YYR


CYYR - Goose Bay

ULTIMO METAR :
  • 221200Z 17008KT 15SM FEW010 FEW035 BKN140 M05/M07 A2980 RMK SF1SC1AS7 SLP095

METARs OBSOLETI :
  • 221100Z 18004KT 15SM FEW035 BKN140 M05/M07 A2982 RMK SC1AS7 SLP102
  • 221000Z 17005KT 15SM FEW022 FEW035 BKN140 M05/M08 A2983 RMK SC2SC1AC4 SLP106

TAF TAF CYYR
Valido dal 22 a 12 ore il 23 a 12 ore UTC


221130Z 2212/2312 18005KT P6SM FEW020 BKN140
FM222300 16005KT P6SM SCT025 OVC090
FM230500 07005KT P6SM -SN BKN025 OVC050
FM230800 07005KT 3SM -SN FEW008 BKN020 OVC040 RMK NXT FCST BY 221800Z



MetMap, La meteo Aeronautica in un colpo d'occhio ! - Copyright ORBIFLY Dicembre 2007 - Disclaimer

ORBIFLY MET'MAP TEAM :

Programmazione e sviluppo : Alexandra Zaïnal
Concezione e sviluppo : Baudouin d'Aumeries
Co-Programmazione e sviluppo : Marc-Olivier Méhu
Supporto tecnico e logistico : Manuel Goepfert
Aiuto per la traduzione : Arnaldo La Scala

Contatto : metmap@orbifly.com




FONTI E CREDITI :

   NOAA